sensor_id;sensor_type;location;lat;lon;timestamp;pressure;altitude;pressure_sealevel;temperature;humidity
75740;BME280;64357;51.344;6.550;2022-11-14T00:02:06;101281.59;;;4.74;84.07
75740;BME280;64357;51.344;6.550;2022-11-14T00:04:31;101269.84;;;4.74;83.90
75740;BME280;64357;51.344;6.550;2022-11-14T00:06:56;101277.44;;;4.74;83.92
75740;BME280;64357;51.344;6.550;2022-11-14T00:09:27;101275.97;;;4.69;83.83
75740;BME280;64357;51.344;6.550;2022-11-14T00:11:54;101272.19;;;4.73;83.68
75740;BME280;64357;51.344;6.550;2022-11-14T00:14:20;101267.78;;;4.65;84.04
75740;BME280;64357;51.344;6.550;2022-11-14T00:16:45;101274.13;;;4.68;85.00
75740;BME280;64357;51.344;6.550;2022-11-14T00:19:11;101266.16;;;4.65;85.43
75740;BME280;64357;51.344;6.550;2022-11-14T00:21:40;101268.81;;;4.79;85.36
75740;BME280;64357;51.344;6.550;2022-11-14T00:24:05;101270.41;;;4.92;84.15
75740;BME280;64357;51.344;6.550;2022-11-14T00:26:30;101262.78;;;5.04;84.15
75740;BME280;64357;51.344;6.550;2022-11-14T00:28:56;101266.22;;;5.05;83.55
75740;BME280;64357;51.344;6.550;2022-11-14T00:31:24;101266.75;;;5.09;83.79
75740;BME280;64357;51.344;6.550;2022-11-14T00:33:52;101262.78;;;5.04;84.28
75740;BME280;64357;51.344;6.550;2022-11-14T00:36:18;101270.66;;;5.20;82.98
75740;BME280;64357;51.344;6.550;2022-11-14T00:38:43;101275.72;;;5.20;83.49
75740;BME280;64357;51.344;6.550;2022-11-14T00:41:11;101268.47;;;5.16;83.38
75740;BME280;64357;51.344;6.550;2022-11-14T00:43:36;101267.84;;;5.04;83.93
75740;BME280;64357;51.344;6.550;2022-11-14T00:46:04;101265.56;;;4.93;83.52
75740;BME280;64357;51.344;6.550;2022-11-14T00:48:29;101262.72;;;4.85;83.82
75740;BME280;64357;51.344;6.550;2022-11-14T00:50:55;101248.50;;;4.72;83.17
75740;BME280;64357;51.344;6.550;2022-11-14T00:53:20;101244.88;;;4.70;83.51
75740;BME280;64357;51.344;6.550;2022-11-14T00:55:46;101243.84;;;4.75;83.04
75740;BME280;64357;51.344;6.550;2022-11-14T00:58:11;101244.81;;;4.63;83.15
75740;BME280;64357;51.344;6.550;2022-11-14T01:00:37;101246.97;;;4.47;83.61
75740;BME280;64357;51.344;6.550;2022-11-14T01:03:02;101244.94;;;4.45;84.25
75740;BME280;64357;51.344;6.550;2022-11-14T01:05:27;101247.28;;;4.43;85.02
75740;BME280;64357;51.344;6.550;2022-11-14T01:07:55;101241.25;;;4.36;84.26
75740;BME280;64357;51.344;6.550;2022-11-14T01:10:21;101245.78;;;4.38;84.40
75740;BME280;64357;51.344;6.550;2022-11-14T01:12:46;101233.00;;;4.44;84.75
75740;BME280;64357;51.344;6.550;2022-11-14T01:15:14;101233.44;;;4.47;84.56
75740;BME280;64357;51.344;6.550;2022-11-14T01:17:40;101231.63;;;4.46;85.15
75740;BME280;64357;51.344;6.550;2022-11-14T01:20:05;101228.56;;;4.48;84.35
75740;BME280;64357;51.344;6.550;2022-11-14T01:22:31;101229.09;;;4.46;84.71
75740;BME280;64357;51.344;6.550;2022-11-14T01:24:56;101228.75;;;4.50;84.45
75740;BME280;64357;51.344;6.550;2022-11-14T01:27:29;101221.38;;;4.51;84.74
75740;BME280;64357;51.344;6.550;2022-11-14T01:29:55;101214.75;;;4.59;84.12
75740;BME280;64357;51.344;6.550;2022-11-14T01:32:20;101216.09;;;4.50;85.38
75740;BME280;64357;51.344;6.550;2022-11-14T01:34:45;101209.16;;;4.42;84.27
75740;BME280;64357;51.344;6.550;2022-11-14T01:37:11;101203.91;;;4.40;85.16
75740;BME280;64357;51.344;6.550;2022-11-14T01:39:36;101200.19;;;4.51;84.83
75740;BME280;64357;51.344;6.550;2022-11-14T01:42:01;101205.06;;;4.49;84.90
75740;BME280;64357;51.344;6.550;2022-11-14T01:44:50;101197.53;;;4.37;84.97
75740;BME280;64357;51.344;6.550;2022-11-14T01:47:28;101197.66;;;4.31;85.15
75740;BME280;64357;51.344;6.550;2022-11-14T01:49:58;101190.97;;;4.32;84.72
75740;BME280;64357;51.344;6.550;2022-11-14T01:52:30;101191.69;;;4.31;84.45
75740;BME280;64357;51.344;6.550;2022-11-14T01:55:00;101182.00;;;4.21;85.22
75740;BME280;64357;51.344;6.550;2022-11-14T01:57:29;101198.06;;;4.21;85.01
75740;BME280;64357;51.344;6.550;2022-11-14T01:59:59;101185.66;;;4.10;85.52
75740;BME280;64357;51.344;6.550;2022-11-14T02:02:28;101192.13;;;4.08;85.39
75740;BME280;64357;51.344;6.550;2022-11-14T02:05:07;101187.16;;;4.15;86.00
75740;BME280;64357;51.344;6.550;2022-11-14T02:07:38;101182.53;;;4.18;85.57
75740;BME280;64357;51.344;6.550;2022-11-14T02:10:13;101183.00;;;4.16;85.95
75740;BME280;64357;51.344;6.550;2022-11-14T02:12:39;101178.91;;;4.04;85.60
75740;BME280;64357;51.344;6.550;2022-11-14T02:15:08;101168.72;;;3.96;85.30
75740;BME280;64357;51.344;6.550;2022-11-14T02:17:34;101176.00;;;4.00;85.35
75740;BME280;64357;51.344;6.550;2022-11-14T02:22:26;101173.56;;;3.95;84.88
75740;BME280;64357;51.344;6.550;2022-11-14T02:24:57;101176.69;;;3.99;85.50
75740;BME280;64357;51.344;6.550;2022-11-14T02:27:24;101163.19;;;4.19;85.57
75740;BME280;64357;51.344;6.550;2022-11-14T02:29:50;101165.41;;;4.23;85.19
75740;BME280;64357;51.344;6.550;2022-11-14T02:32:15;101168.63;;;4.22;84.70
75740;BME280;64357;51.344;6.550;2022-11-14T02:34:41;101159.47;;;4.22;84.27
75740;BME280;64357;51.344;6.550;2022-11-14T02:37:09;101157.25;;;4.38;84.07
75740;BME280;64357;51.344;6.550;2022-11-14T02:39:34;101154.34;;;4.35;83.71
75740;BME280;64357;51.344;6.550;2022-11-14T02:41:59;101152.06;;;4.44;84.39
75740;BME280;64357;51.344;6.550;2022-11-14T02:44:25;101148.75;;;4.38;83.09
75740;BME280;64357;51.344;6.550;2022-11-14T02:46:50;101130.81;;;4.29;83.27
75740;BME280;64357;51.344;6.550;2022-11-14T02:49:16;101139.31;;;4.30;83.20
75740;BME280;64357;51.344;6.550;2022-11-14T02:51:41;101130.41;;;4.26;83.47
75740;BME280;64357;51.344;6.550;2022-11-14T02:54:06;101122.56;;;4.17;83.37
75740;BME280;64357;51.344;6.550;2022-11-14T02:56:32;101131.81;;;3.91;84.12
75740;BME280;64357;51.344;6.550;2022-11-14T02:58:57;101127.88;;;3.93;84.81
75740;BME280;64357;51.344;6.550;2022-11-14T03:01:22;101122.13;;;3.94;84.54
75740;BME280;64357;51.344;6.550;2022-11-14T03:03:48;101127.38;;;3.96;83.74
75740;BME280;64357;51.344;6.550;2022-11-14T03:06:13;101124.47;;;3.93;83.87
75740;BME280;64357;51.344;6.550;2022-11-14T03:08:39;101125.59;;;3.82;83.02
75740;BME280;64357;51.344;6.550;2022-11-14T03:11:08;101118.59;;;3.74;83.35
75740;BME280;64357;51.344;6.550;2022-11-14T03:13:34;101119.31;;;3.73;83.64
75740;BME280;64357;51.344;6.550;2022-11-14T03:16:07;101112.78;;;3.55;83.57
75740;BME280;64357;51.344;6.550;2022-11-14T03:18:32;101121.38;;;3.50;83.39
75740;BME280;64357;51.344;6.550;2022-11-14T03:21:04;101114.41;;;3.55;85.16
75740;BME280;64357;51.344;6.550;2022-11-14T03:23:32;101113.66;;;3.81;85.13
75740;BME280;64357;51.344;6.550;2022-11-14T03:26:01;101110.63;;;3.84;84.27
75740;BME280;64357;51.344;6.550;2022-11-14T03:28:29;101115.38;;;3.75;84.29
75740;BME280;64357;51.344;6.550;2022-11-14T03:30:55;101105.69;;;3.78;84.87
75740;BME280;64357;51.344;6.550;2022-11-14T03:33:23;101102.34;;;3.72;84.15
75740;BME280;64357;51.344;6.550;2022-11-14T03:35:49;101105.97;;;3.74;83.90
75740;BME280;64357;51.344;6.550;2022-11-14T03:38:16;101096.47;;;3.79;84.12
75740;BME280;64357;51.344;6.550;2022-11-14T03:40:41;101102.63;;;3.81;84.43
75740;BME280;64357;51.344;6.550;2022-11-14T03:43:07;101098.34;;;3.54;82.10
75740;BME280;64357;51.344;6.550;2022-11-14T03:45:33;101100.19;;;3.30;82.77
75740;BME280;64357;51.344;6.550;2022-11-14T03:48:00;101111.06;;;3.10;84.11
75740;BME280;64357;51.344;6.550;2022-11-14T03:50:25;101100.47;;;3.00;84.34
75740;BME280;64357;51.344;6.550;2022-11-14T03:52:50;101103.28;;;2.96;85.05
75740;BME280;64357;51.344;6.550;2022-11-14T03:55:18;101102.38;;;2.96;85.02
75740;BME280;64357;51.344;6.550;2022-11-14T03:57:46;101101.06;;;2.92;85.63
75740;BME280;64357;51.344;6.550;2022-11-14T04:00:17;101094.72;;;2.88;86.12
75740;BME280;64357;51.344;6.550;2022-11-14T04:02:42;101096.81;;;2.85;86.46
75740;BME280;64357;51.344;6.550;2022-11-14T04:05:08;101093.41;;;2.98;86.08
75740;BME280;64357;51.344;6.550;2022-11-14T04:07:36;101085.44;;;3.07;85.47
75740;BME280;64357;51.344;6.550;2022-11-14T04:10:07;101076.06;;;3.06;85.53
75740;BME280;64357;51.344;6.550;2022-11-14T04:12:32;101085.34;;;3.00;85.26
75740;BME280;64357;51.344;6.550;2022-11-14T04:15:00;101083.63;;;2.93;84.88
75740;BME280;64357;51.344;6.550;2022-11-14T04:17:25;101089.53;;;2.81;84.83
75740;BME280;64357;51.344;6.550;2022-11-14T04:19:50;101084.09;;;2.78;84.56
75740;BME280;64357;51.344;6.550;2022-11-14T04:22:16;101075.09;;;2.67;85.30
75740;BME280;64357;51.344;6.550;2022-11-14T04:24:41;101079.44;;;2.68;85.53
75740;BME280;64357;51.344;6.550;2022-11-14T04:27:06;101070.34;;;2.63;85.58
75740;BME280;64357;51.344;6.550;2022-11-14T04:29:34;101081.94;;;2.68;86.18
75740;BME280;64357;51.344;6.550;2022-11-14T04:31:59;101075.63;;;2.78;86.55
75740;BME280;64357;51.344;6.550;2022-11-14T04:34:24;101069.88;;;2.79;86.26
75740;BME280;64357;51.344;6.550;2022-11-14T04:36:50;101066.63;;;2.80;86.24
75740;BME280;64357;51.344;6.550;2022-11-14T04:39:16;101068.44;;;2.81;85.94
75740;BME280;64357;51.344;6.550;2022-11-14T04:41:41;101071.38;;;2.71;86.38
75740;BME280;64357;51.344;6.550;2022-11-14T04:44:07;101067.53;;;2.80;85.67
75740;BME280;64357;51.344;6.550;2022-11-14T04:46:32;101069.88;;;2.79;86.18
75740;BME280;64357;51.344;6.550;2022-11-14T04:48:58;101071.28;;;2.77;85.57
75740;BME280;64357;51.344;6.550;2022-11-14T04:51:25;101079.75;;;2.77;85.46
75740;BME280;64357;51.344;6.550;2022-11-14T04:53:50;101062.59;;;2.75;85.04
75740;BME280;64357;51.344;6.550;2022-11-14T04:56:16;101074.53;;;2.76;85.61
75740;BME280;64357;51.344;6.550;2022-11-14T04:58:41;101064.28;;;2.68;85.26
75740;BME280;64357;51.344;6.550;2022-11-14T05:01:10;101068.78;;;2.77;85.16
75740;BME280;64357;51.344;6.550;2022-11-14T05:03:37;101072.31;;;2.84;84.61
75740;BME280;64357;51.344;6.550;2022-11-14T05:06:03;101065.03;;;2.80;84.28
75740;BME280;64357;51.344;6.550;2022-11-14T05:08:28;101059.50;;;2.83;84.46
75740;BME280;64357;51.344;6.550;2022-11-14T05:10:53;101061.59;;;2.80;84.60
75740;BME280;64357;51.344;6.550;2022-11-14T05:13:19;101060.78;;;2.74;84.35
75740;BME280;64357;51.344;6.550;2022-11-14T05:15:44;101051.91;;;2.70;84.69
75740;BME280;64357;51.344;6.550;2022-11-14T05:18:12;101049.16;;;2.68;84.81
75740;BME280;64357;51.344;6.550;2022-11-14T05:20:37;101048.34;;;2.75;84.54
75740;BME280;64357;51.344;6.550;2022-11-14T05:23:03;101050.22;;;2.76;85.21
75740;BME280;64357;51.344;6.550;2022-11-14T05:25:29;101048.16;;;2.74;84.98
75740;BME280;64357;51.344;6.550;2022-11-14T05:27:54;101044.44;;;2.77;84.92
75740;BME280;64357;51.344;6.550;2022-11-14T05:30:20;101051.59;;;2.74;85.10
75740;BME280;64357;51.344;6.550;2022-11-14T05:32:45;101039.50;;;2.72;84.76
75740;BME280;64357;51.344;6.550;2022-11-14T05:35:13;101040.78;;;2.75;84.63
75740;BME280;64357;51.344;6.550;2022-11-14T05:37:38;101044.03;;;2.74;84.81
75740;BME280;64357;51.344;6.550;2022-11-14T05:40:04;101034.66;;;2.73;84.99
75740;BME280;64357;51.344;6.550;2022-11-14T05:42:34;101037.97;;;2.79;84.62
75740;BME280;64357;51.344;6.550;2022-11-14T05:45:02;101025.66;;;2.75;84.92
75740;BME280;64357;51.344;6.550;2022-11-14T05:47:32;101030.59;;;2.81;84.83
75740;BME280;64357;51.344;6.550;2022-11-14T05:49:57;101033.84;;;2.80;84.79
75740;BME280;64357;51.344;6.550;2022-11-14T05:52:23;101029.94;;;2.82;84.76
75740;BME280;64357;51.344;6.550;2022-11-14T05:54:48;101026.28;;;2.92;84.81
75740;BME280;64357;51.344;6.550;2022-11-14T05:57:13;101028.59;;;2.91;85.16
75740;BME280;64357;51.344;6.550;2022-11-14T05:59:41;101011.22;;;2.87;84.62
75740;BME280;64357;51.344;6.550;2022-11-14T06:02:06;101024.56;;;2.99;83.90
75740;BME280;64357;51.344;6.550;2022-11-14T06:04:34;101026.19;;;2.98;83.53
75740;BME280;64357;51.344;6.550;2022-11-14T06:07:00;101022.13;;;2.93;83.90
75740;BME280;64357;51.344;6.550;2022-11-14T06:09:28;101023.16;;;2.88;84.46
75740;BME280;64357;51.344;6.550;2022-11-14T06:11:58;101027.59;;;2.96;84.30
75740;BME280;64357;51.344;6.550;2022-11-14T06:14:25;101016.91;;;2.91;84.18
75740;BME280;64357;51.344;6.550;2022-11-14T06:16:55;101022.03;;;2.99;84.05
75740;BME280;64357;51.344;6.550;2022-11-14T06:19:20;101016.78;;;3.10;83.90
75740;BME280;64357;51.344;6.550;2022-11-14T06:21:46;101010.53;;;3.13;83.72
75740;BME280;64357;51.344;6.550;2022-11-14T06:24:13;101002.44;;;3.16;83.56
75740;BME280;64357;51.344;6.550;2022-11-14T06:26:39;101012.03;;;3.18;83.42
75740;BME280;64357;51.344;6.550;2022-11-14T06:29:04;101015.28;;;3.17;83.66
75740;BME280;64357;51.344;6.550;2022-11-14T06:31:29;101018.38;;;3.35;83.58
75740;BME280;64357;51.344;6.550;2022-11-14T06:33:55;101013.44;;;3.29;83.54
75740;BME280;64357;51.344;6.550;2022-11-14T06:36:21;101012.31;;;3.27;83.40
75740;BME280;64357;51.344;6.550;2022-11-14T06:38:46;101029.72;;;3.18;84.36
75740;BME280;64357;51.344;6.550;2022-11-14T06:41:16;101017.09;;;3.18;83.93
75740;BME280;64357;51.344;6.550;2022-11-14T06:43:45;101016.78;;;3.10;83.52
75740;BME280;64357;51.344;6.550;2022-11-14T06:46:13;101022.97;;;3.12;83.53
75740;BME280;64357;51.344;6.550;2022-11-14T06:48:39;101012.63;;;3.10;83.21
75740;BME280;64357;51.344;6.550;2022-11-14T06:51:05;101020.91;;;3.09;83.62
75740;BME280;64357;51.344;6.550;2022-11-14T06:53:33;101023.78;;;3.05;83.71
75740;BME280;64357;51.344;6.550;2022-11-14T06:56:19;101030.31;;;3.10;83.62
75740;BME280;64357;51.344;6.550;2022-11-14T06:58:47;101025.03;;;3.21;84.08
75740;BME280;64357;51.344;6.550;2022-11-14T07:01:19;101028.25;;;3.33;83.63
75740;BME280;64357;51.344;6.550;2022-11-14T07:03:45;101029.16;;;3.34;83.92
75740;BME280;64357;51.344;6.550;2022-11-14T07:06:16;101029.28;;;3.28;84.11
75740;BME280;64357;51.344;6.550;2022-11-14T07:08:44;101028.19;;;3.26;83.68
75740;BME280;64357;51.344;6.550;2022-11-14T07:11:15;101026.88;;;3.23;83.47
75740;BME280;64357;51.344;6.550;2022-11-14T07:13:55;101031.72;;;3.21;84.28
75740;BME280;64357;51.344;6.550;2022-11-14T07:16:24;101028.19;;;3.13;83.94
75740;BME280;64357;51.344;6.550;2022-11-14T07:18:52;101030.72;;;3.13;84.29
75740;BME280;64357;51.344;6.550;2022-11-14T07:21:17;101046.16;;;3.22;83.66
75740;BME280;64357;51.344;6.550;2022-11-14T07:23:42;101041.09;;;3.22;83.78
75740;BME280;64357;51.344;6.550;2022-11-14T07:26:09;101046.38;;;3.24;83.50
75740;BME280;64357;51.344;6.550;2022-11-14T07:28:38;101035.75;;;3.26;83.95
75740;BME280;64357;51.344;6.550;2022-11-14T07:31:07;101028.88;;;3.25;83.91
75740;BME280;64357;51.344;6.550;2022-11-14T07:33:34;101029.78;;;3.26;83.91
75740;BME280;64357;51.344;6.550;2022-11-14T07:35:59;101026.88;;;3.23;84.11
75740;BME280;64357;51.344;6.550;2022-11-14T07:38:25;101025.75;;;3.20;84.26
75740;BME280;64357;51.344;6.550;2022-11-14T07:41:04;101019.41;;;3.30;83.88
75740;BME280;64357;51.344;6.550;2022-11-14T07:43:30;101023.91;;;3.45;83.34
75740;BME280;64357;51.344;6.550;2022-11-14T07:46:00;101021.16;;;4.28;83.63
75740;BME280;64357;51.344;6.550;2022-11-14T07:48:26;101018.53;;;5.22;80.04
75740;BME280;64357;51.344;6.550;2022-11-14T07:51:05;101011.66;;;5.70;77.09
75740;BME280;64357;51.344;6.550;2022-11-14T07:53:34;101014.03;;;5.89;76.40
75740;BME280;64357;51.344;6.550;2022-11-14T07:56:04;101008.25;;;5.91;75.93
75740;BME280;64357;51.344;6.550;2022-11-14T07:58:30;101021.91;;;6.05;76.06
75740;BME280;64357;51.344;6.550;2022-11-14T08:01:04;101028.22;;;6.09;76.26
75740;BME280;64357;51.344;6.550;2022-11-14T08:03:32;101025.16;;;6.11;75.85
75740;BME280;64357;51.344;6.550;2022-11-14T08:06:09;101029.16;;;6.17;76.33
75740;BME280;64357;51.344;6.550;2022-11-14T08:08:35;101031.16;;;6.19;76.11
75740;BME280;64357;51.344;6.550;2022-11-14T08:11:00;101024.59;;;6.21;75.95
75740;BME280;64357;51.344;6.550;2022-11-14T08:13:29;101020.09;;;6.19;76.22
75740;BME280;64357;51.344;6.550;2022-11-14T08:15:54;101015.75;;;6.32;76.85
75740;BME280;64357;51.344;6.550;2022-11-14T08:18:22;101022.28;;;6.37;76.01
75740;BME280;64357;51.344;6.550;2022-11-14T08:20:47;101024.28;;;6.39;76.40
75740;BME280;64357;51.344;6.550;2022-11-14T08:23:13;101026.44;;;6.44;76.66
75740;BME280;64357;51.344;6.550;2022-11-14T08:25:38;101021.00;;;6.48;76.51
75740;BME280;64357;51.344;6.550;2022-11-14T08:28:04;101021.34;;;6.51;76.86
75740;BME280;64357;51.344;6.550;2022-11-14T08:30:30;101014.47;;;6.50;77.64
75740;BME280;64357;51.344;6.550;2022-11-14T08:32:56;101016.31;;;6.58;77.50
75740;BME280;64357;51.344;6.550;2022-11-14T08:35:21;101013.75;;;6.58;77.20
75740;BME280;64357;51.344;6.550;2022-11-14T08:37:47;101014.47;;;6.64;76.85
75740;BME280;64357;51.344;6.550;2022-11-14T08:40:12;101005.06;;;6.63;77.22
75740;BME280;64357;51.344;6.550;2022-11-14T08:42:38;101013.00;;;6.66;77.65
75740;BME280;64357;51.344;6.550;2022-11-14T08:45:04;100999.41;;;6.65;77.15
75740;BME280;64357;51.344;6.550;2022-11-14T08:47:33;101001.03;;;6.72;77.64
75740;BME280;64357;51.344;6.550;2022-11-14T08:49:58;100997.97;;;6.75;77.23
75740;BME280;64357;51.344;6.550;2022-11-14T08:52:23;101000.31;;;6.73;78.01
75740;BME280;64357;51.344;6.550;2022-11-14T08:54:49;100991.44;;;6.70;77.72
75740;BME280;64357;51.344;6.550;2022-11-14T08:57:16;100992.69;;;6.73;77.99
75740;BME280;64357;51.344;6.550;2022-11-14T08:59:44;100985.63;;;6.78;78.05
75740;BME280;64357;51.344;6.550;2022-11-14T09:02:11;100985.78;;;6.86;77.76
75740;BME280;64357;51.344;6.550;2022-11-14T09:04:38;100979.78;;;6.86;78.33
75740;BME280;64357;51.344;6.550;2022-11-14T09:07:04;100982.88;;;6.83;78.41
75740;BME280;64357;51.344;6.550;2022-11-14T09:09:29;100988.88;;;6.84;78.20
75740;BME280;64357;51.344;6.550;2022-11-14T09:11:55;100987.22;;;6.84;78.71
75740;BME280;64357;51.344;6.550;2022-11-14T09:14:20;100980.72;;;6.86;78.19
75740;BME280;64357;51.344;6.550;2022-11-14T09:16:49;100973.09;;;6.86;78.06
75740;BME280;64357;51.344;6.550;2022-11-14T09:19:14;100984.88;;;6.93;78.12
75740;BME280;64357;51.344;6.550;2022-11-14T09:21:39;100978.47;;;6.97;77.46
75740;BME280;64357;51.344;6.550;2022-11-14T09:24:05;100978.69;;;6.98;78.05
75740;BME280;64357;51.344;6.550;2022-11-14T09:26:31;100980.09;;;7.03;76.67
75740;BME280;64357;51.344;6.550;2022-11-14T09:28:58;100980.28;;;6.98;77.14
75740;BME280;64357;51.344;6.550;2022-11-14T09:31:24;100980.28;;;7.05;77.08
75740;BME280;64357;51.344;6.550;2022-11-14T09:33:50;100978.13;;;7.01;76.63
75740;BME280;64357;51.344;6.550;2022-11-14T09:36:15;100981.44;;;6.92;76.91
75740;BME280;64357;51.344;6.550;2022-11-14T09:38:43;100980.84;;;6.95;77.32
75740;BME280;64357;51.344;6.550;2022-11-14T09:46:24;100980.31;;;6.90;77.98
75740;BME280;64357;51.344;6.550;2022-11-14T09:48:55;100989.25;;;6.87;78.47
75740;BME280;64357;51.344;6.550;2022-11-14T09:51:23;100991.41;;;6.84;78.08
75740;BME280;64357;51.344;6.550;2022-11-14T09:53:56;100980.53;;;6.78;77.97
75740;BME280;64357;51.344;6.550;2022-11-14T09:56:25;100988.69;;;6.82;78.48
75740;BME280;64357;51.344;6.550;2022-11-14T09:58:51;100988.50;;;6.88;78.15
75740;BME280;64357;51.344;6.550;2022-11-14T10:01:33;100980.19;;;6.82;77.90
75740;BME280;64357;51.344;6.550;2022-11-14T10:09:57;100966.88;;;6.91;77.93
75740;BME280;64357;51.344;6.550;2022-11-14T10:15:16;100962.19;;;6.94;77.47
75740;BME280;64357;51.344;6.550;2022-11-14T10:33:23;100952.84;;;7.09;77.09
75740;BME280;64357;51.344;6.550;2022-11-14T10:38:52;100937.19;;;7.28;77.10
75740;BME280;64357;51.344;6.550;2022-11-14T10:41:19;100924.72;;;7.15;77.08
75740;BME280;64357;51.344;6.550;2022-11-14T10:43:48;100931.06;;;7.18;77.54
75740;BME280;64357;51.344;6.550;2022-11-14T10:46:27;100923.97;;;7.23;77.61
75740;BME280;64357;51.344;6.550;2022-11-14T10:48:53;100933.41;;;7.24;76.92
75740;BME280;64357;51.344;6.550;2022-11-14T10:51:32;100926.00;;;7.48;76.17
75740;BME280;64357;51.344;6.550;2022-11-14T10:54:16;100925.88;;;7.40;76.98
75740;BME280;64357;51.344;6.550;2022-11-14T10:56:51;100929.88;;;7.38;77.47
75740;BME280;64357;51.344;6.550;2022-11-14T10:59:17;100923.91;;;7.30;77.24
75740;BME280;64357;51.344;6.550;2022-11-14T11:01:45;100917.38;;;7.32;76.83
75740;BME280;64357;51.344;6.550;2022-11-14T11:06:54;100918.72;;;7.52;76.67
75740;BME280;64357;51.344;6.550;2022-11-14T11:09:26;100918.53;;;7.50;76.54
75740;BME280;64357;51.344;6.550;2022-11-14T11:12:19;100916.81;;;7.65;75.73
75740;BME280;64357;51.344;6.550;2022-11-14T11:14:47;100905.59;;;7.63;75.98
75740;BME280;64357;51.344;6.550;2022-11-14T11:19:40;100915.31;;;7.74;75.51
75740;BME280;64357;51.344;6.550;2022-11-14T11:22:43;100917.44;;;7.78;75.59
75740;BME280;64357;51.344;6.550;2022-11-14T11:25:26;100916.44;;;7.69;76.44
75740;BME280;64357;51.344;6.550;2022-11-14T11:28:05;100918.75;;;7.74;76.90
75740;BME280;64357;51.344;6.550;2022-11-14T11:30:31;100922.31;;;7.84;76.51
75740;BME280;64357;51.344;6.550;2022-11-14T11:33:14;100914.84;;;7.85;76.86
75740;BME280;64357;51.344;6.550;2022-11-14T11:35:40;100909.06;;;7.79;77.59
75740;BME280;64357;51.344;6.550;2022-11-14T11:38:07;100893.81;;;7.79;77.48
75740;BME280;64357;51.344;6.550;2022-11-14T11:40:36;100898.88;;;7.86;77.69
75740;BME280;64357;51.344;6.550;2022-11-14T11:43:04;100889.75;;;7.88;76.96
75740;BME280;64357;51.344;6.550;2022-11-14T11:45:38;100899.09;;;8.04;76.72
75740;BME280;64357;51.344;6.550;2022-11-14T11:48:19;100886.53;;;8.05;77.22
75740;BME280;64357;51.344;6.550;2022-11-14T11:50:48;100885.16;;;8.16;76.77
75740;BME280;64357;51.344;6.550;2022-11-14T11:53:37;100881.22;;;8.11;76.95
75740;BME280;64357;51.344;6.550;2022-11-14T11:56:11;100873.91;;;8.14;76.75
75740;BME280;64357;51.344;6.550;2022-11-14T11:58:47;100878.81;;;8.12;76.52
75740;BME280;64357;51.344;6.550;2022-11-14T12:01:14;100860.78;;;8.18;76.12
75740;BME280;64357;51.344;6.550;2022-11-14T12:03:49;100867.13;;;8.21;76.66
75740;BME280;64357;51.344;6.550;2022-11-14T12:11:45;100855.28;;;8.22;76.22
75740;BME280;64357;51.344;6.550;2022-11-14T12:20:02;100845.53;;;8.34;76.37
75740;BME280;64357;51.344;6.550;2022-11-14T12:30:50;100803.06;;;9.13;72.62
75740;BME280;64357;51.344;6.550;2022-11-14T12:33:25;100789.59;;;9.14;72.68
75740;BME280;64357;51.344;6.550;2022-11-14T12:35:58;100794.22;;;9.10;72.95
75740;BME280;64357;51.344;6.550;2022-11-14T12:38:31;100803.03;;;9.04;73.11
75740;BME280;64357;51.344;6.550;2022-11-14T12:40:58;100805.34;;;8.94;73.16
75740;BME280;64357;51.344;6.550;2022-11-14T12:43:40;100806.00;;;8.85;73.78
75740;BME280;64357;51.344;6.550;2022-11-14T12:46:10;100810.97;;;8.67;74.25
75740;BME280;64357;51.344;6.550;2022-11-14T12:48:41;100807.63;;;8.75;74.51
75740;BME280;64357;51.344;6.550;2022-11-14T12:53:56;100789.94;;;8.77;74.08
75740;BME280;64357;51.344;6.550;2022-11-14T13:01:54;100804.97;;;8.67;75.08
75740;BME280;64357;51.344;6.550;2022-11-14T13:09:57;100811.56;;;8.65;74.71
75740;BME280;64357;51.344;6.550;2022-11-14T13:15:27;100817.81;;;8.60;75.11
75740;BME280;64357;51.344;6.550;2022-11-14T13:21:27;100823.94;;;8.62;75.08
75740;BME280;64357;51.344;6.550;2022-11-14T13:24:16;100826.84;;;8.65;75.31
75740;BME280;64357;51.344;6.550;2022-11-14T13:27:22;100833.19;;;8.68;75.48
75740;BME280;64357;51.344;6.550;2022-11-14T13:29:47;100828.09;;;8.68;74.83
75740;BME280;64357;51.344;6.550;2022-11-14T13:35:11;100827.84;;;8.58;75.25
75740;BME280;64357;51.344;6.550;2022-11-14T13:51:10;100821.84;;;8.58;76.08
75740;BME280;64357;51.344;6.550;2022-11-14T13:53:42;100820.50;;;8.61;75.90
75740;BME280;64357;51.344;6.550;2022-11-14T14:02:07;100797.28;;;8.58;76.52
75740;BME280;64357;51.344;6.550;2022-11-14T14:07:21;100799.44;;;8.46;76.55
75740;BME280;64357;51.344;6.550;2022-11-14T14:10:00;100808.78;;;8.54;76.63
75740;BME280;64357;51.344;6.550;2022-11-14T14:12:49;100800.47;;;8.48;77.10
75740;BME280;64357;51.344;6.550;2022-11-14T14:16:44;100801.22;;;8.47;76.75
75740;BME280;64357;51.344;6.550;2022-11-14T14:21:41;100803.13;;;8.57;76.97
75740;BME280;64357;51.344;6.550;2022-11-14T14:30:00;100781.47;;;8.45;76.68
75740;BME280;64357;51.344;6.550;2022-11-14T14:32:27;100778.16;;;8.46;76.67
75740;BME280;64357;51.344;6.550;2022-11-14T14:34:53;100776.66;;;8.48;77.01
75740;BME280;64357;51.344;6.550;2022-11-14T14:37:26;100764.09;;;8.49;76.90
75740;BME280;64357;51.344;6.550;2022-11-14T14:40:02;100754.41;;;8.54;76.50
75740;BME280;64357;51.344;6.550;2022-11-14T14:42:39;100750.81;;;8.52;76.52
75740;BME280;64357;51.344;6.550;2022-11-14T14:45:13;100740.03;;;8.54;76.32
75740;BME280;64357;51.344;6.550;2022-11-14T14:47:41;100741.69;;;8.54;76.39
75740;BME280;64357;51.344;6.550;2022-11-14T14:50:28;100746.38;;;8.58;75.96
75740;BME280;64357;51.344;6.550;2022-11-14T14:52:58;100742.91;;;8.58;75.98
75740;BME280;64357;51.344;6.550;2022-11-14T14:55:25;100745.31;;;8.56;75.92
75740;BME280;64357;51.344;6.550;2022-11-14T14:57:51;100742.00;;;8.57;75.70
75740;BME280;64357;51.344;6.550;2022-11-14T15:00:23;100738.88;;;8.60;75.76
75740;BME280;64357;51.344;6.550;2022-11-14T15:02:57;100739.78;;;8.60;75.78